Time;durP1;ratioP1;P1;durP2;ratioP2;P2;SDS_P1;SDS_P2;PMS_P1;PMS_P2;Temp;Humidity;BMP_temperature;BMP_pressure;BME280_temperature;BME280_humidity;BME280_pressure;Samples;Min_cycle;Max_cycle;Signal;HPM_P1;HPM_P2
2024/02/25 00:02:24;;;;;;;0.50;0.35;;;22.50;41.20;;;;;;5069741;28;20028;-41
2024/02/25 00:04:50;;;;;;;0.30;0.30;;;22.50;41.20;;;;;;5067355;28;20046;-41
2024/02/25 00:07:16;;;;;;;2.20;0.40;;;22.40;41.00;;;;;;5074623;28;20048;-42
2024/02/25 00:09:42;;;;;;;0.50;0.32;;;22.50;41.10;;;;;;5050383;28;20037;-41
2024/02/25 00:12:09;;;;;;;1.40;0.40;;;22.50;41.30;;;;;;5066411;28;20032;-41
2024/02/25 00:14:35;;;;;;;0.90;0.35;;;22.50;41.20;;;;;;5069108;28;20040;-43
2024/02/25 00:17:01;;;;;;;0.65;0.40;;;22.50;41.20;;;;;;5068002;28;20024;-41
2024/02/25 00:19:29;;;;;;;0.65;0.40;;;22.40;41.20;;;;;;5072595;28;20073;-37
2024/02/25 00:21:56;;;;;;;0.98;0.38;;;22.40;41.20;;;;;;5067472;28;20174;-41
2024/02/25 00:24:22;;;;;;;0.70;0.30;;;22.40;41.10;;;;;;5069203;28;20082;-39
2024/02/25 00:26:51;;;;;;;0.68;0.40;;;22.40;41.10;;;;;;5068938;28;20029;-41
2024/02/25 00:29:17;;;;;;;0.47;0.40;;;22.40;41.20;;;;;;5068903;28;20028;-39
2024/02/25 00:31:43;;;;;;;0.70;0.30;;;22.40;41.20;;;;;;5071449;28;20033;-37
2024/02/25 00:34:09;;;;;;;1.35;0.45;;;22.40;41.20;;;;;;5071690;28;20033;-39
2024/02/25 00:36:35;;;;;;;1.13;0.17;;;22.40;41.30;;;;;;5074480;28;20024;-40
2024/02/25 00:39:02;;;;;;;0.70;0.47;;;22.40;41.30;;;;;;5068844;28;20041;-39
2024/02/25 00:41:28;;;;;;;0.47;0.30;;;22.30;41.20;;;;;;5068801;28;20519;-39
2024/02/25 00:43:54;;;;;;;1.05;0.38;;;22.30;41.10;;;;;;5070364;28;20032;-40
2024/02/25 00:46:21;;;;;;;1.60;0.52;;;22.30;41.30;;;;;;5078670;28;20051;-42
2024/02/25 00:48:47;;;;;;;2.10;0.40;;;22.40;41.30;;;;;;5075282;28;20051;-42
2024/02/25 00:51:13;;;;;;;2.08;0.38;;;22.40;41.30;;;;;;5082063;28;20288;-41
2024/02/25 00:53:39;;;;;;;0.45;0.32;;;22.30;41.40;;;;;;5081540;28;20028;-41
2024/02/25 00:56:06;;;;;;;0.65;0.40;;;22.30;41.40;;;;;;5077420;28;20483;-41
2024/02/25 00:58:33;;;;;;;1.25;0.57;;;22.30;41.40;;;;;;5080604;28;20032;-42
2024/02/25 01:00:59;;;;;;;;;;;22.30;41.40;;;;;;5081564;28;20074;-40
2024/02/25 01:03:25;;;;;;;2.05;0.50;;;22.30;41.20;;;;;;5082320;28;19912;-42
2024/02/25 01:05:51;;;;;;;2.50;0.50;;;22.30;41.30;;;;;;5078513;28;20036;-40
2024/02/25 01:08:17;;;;;;;2.35;0.40;;;22.30;41.50;;;;;;5081752;28;20448;-43
2024/02/25 01:10:43;;;;;;;1.20;0.40;;;22.30;41.50;;;;;;5080178;28;20118;-41
2024/02/25 01:13:10;;;;;;;2.60;0.68;;;22.30;41.50;;;;;;5078305;28;20024;-41
2024/02/25 01:15:36;;;;;;;1.30;0.50;;;22.30;41.50;;;;;;5080963;28;20036;-42
2024/02/25 01:18:02;;;;;;;1.08;0.60;;;22.20;41.40;;;;;;5077003;28;20108;-41
2024/02/25 01:20:28;;;;;;;1.67;0.50;;;22.20;41.50;;;;;;5082193;28;20045;-42
2024/02/25 01:22:54;;;;;;;1.67;0.85;;;22.30;41.50;;;;;;5067033;28;20021;-40
2024/02/25 01:25:20;;;;;;;0.55;0.47;;;22.30;41.50;;;;;;5081342;28;20025;-43
2024/02/25 01:27:46;;;;;;;1.75;0.68;;;22.30;41.50;;;;;;5074874;28;20049;-42
2024/02/25 01:30:14;;;;;;;1.92;0.60;;;22.20;41.50;;;;;;5080364;28;20032;-40
2024/02/25 01:32:59;;;;;;;0.73;0.40;;;22.20;41.50;;;;;;5004071;28;20042;-39
2024/02/25 01:35:25;;;;;;;0.88;0.50;;;22.20;41.30;;;;;;5001466;28;20044;-41
2024/02/25 01:37:51;;;;;;;1.10;0.40;;;22.20;41.30;;;;;;5004442;28;20029;-43
2024/02/25 01:40:18;;;;;;;0.80;0.52;;;22.20;41.30;;;;;;4999758;28;20041;-42
2024/02/25 01:42:44;;;;;;;1.52;0.63;;;22.20;41.30;;;;;;5010302;28;20029;-42
2024/02/25 01:45:10;;;;;;;0.50;0.47;;;22.20;41.40;;;;;;5004430;28;20554;-41
2024/02/25 01:47:36;;;;;;;0.45;0.40;;;22.20;41.40;;;;;;5004315;28;20101;-41
2024/02/25 01:50:02;;;;;;;0.95;0.60;;;22.20;41.30;;;;;;4999871;28;20046;-41
2024/02/25 01:52:28;;;;;;;1.00;0.50;;;22.10;41.20;;;;;;5000643;28;20034;-40
2024/02/25 01:54:55;;;;;;;1.73;0.60;;;22.10;41.30;;;;;;4989251;28;20777;-42
2024/02/25 01:57:21;;;;;;;3.53;0.73;;;22.20;41.40;;;;;;4985388;28;20041;-42
2024/02/25 01:59:47;;;;;;;2.08;0.70;;;22.20;41.40;;;;;;4987152;28;20295;-39
2024/02/25 02:02:13;;;;;;;0.97;0.50;;;22.20;42.00;;;;;;5001471;28;20064;-40
2024/02/25 02:04:43;;;;;;;1.02;0.70;;;22.20;41.40;;;;;;4995991;28;20104;-39
2024/02/25 02:07:09;;;;;;;2.17;0.50;;;22.10;41.30;;;;;;5000056;28;20074;-40
2024/02/25 02:09:35;;;;;;;0.63;0.52;;;22.10;41.20;;;;;;5020965;28;20047;-38
2024/02/25 02:12:01;;;;;;;0.87;0.70;;;22.10;41.30;;;;;;5077471;28;20048;-42
2024/02/25 02:14:28;;;;;;;0.60;0.60;;;22.10;41.40;;;;;;5070573;28;20063;-41
2024/02/25 02:16:54;;;;;;;2.72;0.80;;;22.20;41.40;;;;;;5072167;28;20052;-41
2024/02/25 02:19:20;;;;;;;3.83;1.08;;;22.10;41.30;;;;;;5074071;28;20071;-39
2024/02/25 02:21:47;;;;;;;1.85;1.00;;;22.10;41.20;;;;;;5080074;28;20032;-42
2024/02/25 02:24:15;;;;;;;2.13;0.90;;;22.10;41.10;;;;;;5081220;28;20044;-41
2024/02/25 02:26:41;;;;;;;1.88;1.23;;;22.00;41.00;;;;;;5075576;28;20035;-42
2024/02/25 02:29:07;;;;;;;1.00;0.80;;;22.00;40.90;;;;;;5081352;28;20037;-40
2024/02/25 02:31:33;;;;;;;1.90;1.20;;;22.10;41.00;;;;;;5076904;28;20067;-43
2024/02/25 02:34:00;;;;;;;2.25;1.00;;;22.10;41.00;;;;;;5078126;28;20054;-41
2024/02/25 02:36:26;;;;;;;2.25;1.13;;;22.10;41.00;;;;;;5081660;28;20561;-42
2024/02/25 02:38:53;;;;;;;1.92;1.20;;;22.10;41.00;;;;;;5074766;28;20049;-41
2024/02/25 02:41:23;;;;;;;3.05;1.15;;;22.00;40.90;;;;;;5082057;28;20044;-42
2024/02/25 02:43:49;;;;;;;2.22;1.63;;;22.00;41.00;;;;;;5078785;28;20091;-42
2024/02/25 02:46:15;;;;;;;2.45;1.50;;;22.10;41.10;;;;;;5082516;28;20044;-42
2024/02/25 02:48:41;;;;;;;1.92;1.45;;;22.10;41.20;;;;;;5081978;28;20021;-42
2024/02/25 02:51:09;;;;;;;1.70;1.52;;;22.10;41.20;;;;;;5083926;28;20067;-40
2024/02/25 02:53:34;;;;;;;;;;;22.00;41.20;;;;;;5073515;28;20040;-42
2024/02/25 02:56:01;;;;;;;1.98;1.25;;;22.00;41.10;;;;;;5084846;28;19913;-41
2024/02/25 02:58:27;;;;;;;2.00;1.30;;;22.00;41.10;;;;;;5084451;28;20029;-41
2024/02/25 03:00:53;;;;;;;1.50;1.20;;;22.00;41.10;;;;;;5077674;28;20033;-38
2024/02/25 03:03:19;;;;;;;2.55;1.38;;;22.00;41.20;;;;;;5084960;28;20025;-40
2024/02/25 03:05:45;;;;;;;1.75;1.02;;;22.00;41.20;;;;;;5083663;28;20036;-42
2024/02/25 03:08:11;;;;;;;1.70;1.20;;;22.00;41.20;;;;;;5084263;28;20132;-40
2024/02/25 03:10:37;;;;;;;2.50;1.25;;;22.00;41.10;;;;;;5077736;28;20049;-40
2024/02/25 03:13:04;;;;;;;1.30;0.83;;;22.00;41.10;;;;;;5079673;28;20032;-42
2024/02/25 03:15:30;;;;;;;1.70;1.00;;;22.00;41.20;;;;;;5080761;28;20044;-41
2024/02/25 03:17:56;;;;;;;1.55;1.00;;;22.00;41.20;;;;;;5076925;28;20025;-42
2024/02/25 03:20:22;;;;;;;1.00;0.75;;;22.00;41.20;;;;;;5080026;28;20044;-41
2024/02/25 03:22:48;;;;;;;2.55;0.82;;;22.00;41.20;;;;;;5083144;28;20031;-39
2024/02/25 03:25:14;;;;;;;1.20;0.93;;;22.00;41.20;;;;;;5084134;28;20032;-40
2024/02/25 03:27:41;;;;;;;1.17;0.73;;;22.00;41.20;;;;;;5083933;28;20492;-42
2024/02/25 03:30:08;;;;;;;0.85;0.70;;;21.90;41.20;;;;;;5069760;28;20033;-41
2024/02/25 03:32:34;;;;;;;0.80;0.55;;;22.00;41.40;;;;;;5078981;28;20116;-40
2024/02/25 03:35:01;;;;;;;1.27;0.60;;;22.00;41.40;;;;;;5081212;28;20028;-42
2024/02/25 03:37:27;;;;;;;2.28;0.60;;;22.00;41.40;;;;;;5084498;28;20048;-41
2024/02/25 03:39:53;;;;;;;0.88;0.80;;;22.00;41.40;;;;;;5082549;28;20100;-41
2024/02/25 03:42:19;;;;;;;1.45;0.75;;;22.00;41.40;;;;;;5083172;28;20370;-41
2024/02/25 03:44:46;;;;;;;1.23;0.80;;;21.90;41.40;;;;;;5073174;28;20025;-40
2024/02/25 03:47:12;;;;;;;1.00;0.60;;;21.90;41.50;;;;;;5078699;28;20033;-44
2024/02/25 03:49:40;;;;;;;0.70;0.52;;;22.00;41.60;;;;;;5075719;28;20270;-40
2024/02/25 03:52:06;;;;;;;1.13;0.60;;;22.00;41.70;;;;;;5077083;28;20031;-41
2024/02/25 03:54:33;;;;;;;0.88;0.70;;;22.00;41.60;;;;;;5083534;28;20033;-46
2024/02/25 03:56:59;;;;;;;0.80;0.52;;;22.00;41.60;;;;;;5079388;28;20029;-42
2024/02/25 03:59:25;;;;;;;0.50;0.40;;;22.00;41.50;;;;;;5078382;28;20021;-41
2024/02/25 04:01:51;;;;;;;0.57;0.47;;;21.90;41.50;;;;;;5083525;28;20040;-42
2024/02/25 04:04:17;;;;;;;1.13;0.47;;;21.90;41.60;;;;;;5082048;28;20036;-41
2024/02/25 04:06:43;;;;;;;1.25;0.50;;;22.00;41.70;;;;;;5081166;28;20056;-41
2024/02/25 04:09:09;;;;;;;2.05;0.60;;;22.00;41.70;;;;;;5082067;28;20021;-41
2024/02/25 04:11:36;;;;;;;1.52;0.70;;;22.00;41.70;;;;;;5080505;28;20032;-42
2024/02/25 04:14:02;;;;;;;3.33;0.70;;;21.90;41.80;;;;;;5077356;28;20040;-40
2024/02/25 04:16:28;;;;;;;9.95;1.58;;;21.90;42.20;;;;;;5074720;28;20037;-44
2024/02/25 04:18:54;;;;;;;29.42;2.30;;;21.90;43.90;;;;;;5074913;28;20032;-42
2024/02/25 04:21:20;;;;;;;10.73;2.00;;;22.00;46.30;;;;;;5083320;28;20116;-42
2024/02/25 04:23:47;;;;;;;9.63;1.50;;;22.00;45.90;;;;;;5077373;28;20029;-41
2024/02/25 04:26:13;;;;;;;4.25;1.45;;;22.10;45.70;;;;;;5077268;28;20039;-41
2024/02/25 04:28:39;;;;;;;6.82;1.35;;;22.00;45.70;;;;;;5077477;28;20040;-40
2024/02/25 04:31:05;;;;;;;5.20;1.42;;;22.00;45.70;;;;;;5082777;28;20058;-41
2024/02/25 04:33:31;;;;;;;3.40;1.20;;;22.00;45.50;;;;;;5082372;28;20059;-40
2024/02/25 04:35:58;;;;;;;1.77;0.90;;;22.00;45.40;;;;;;5074757;28;20044;-39
2024/02/25 04:38:24;;;;;;;1.65;0.85;;;22.00;44.90;;;;;;5074467;28;20021;-41
2024/02/25 04:40:53;;;;;;;2.45;0.82;;;22.00;44.60;;;;;;5082795;28;20402;-41
2024/02/25 04:43:19;;;;;;;2.72;1.00;;;22.10;44.50;;;;;;5082602;28;20060;-40
2024/02/25 04:45:45;;;;;;;2.67;1.10;;;22.10;44.40;;;;;;5077043;28;20106;-44
2024/02/25 04:48:11;;;;;;;2.67;0.77;;;22.00;44.30;;;;;;5079004;28;20067;-42
2024/02/25 04:50:37;;;;;;;2.28;0.80;;;22.00;44.20;;;;;;5079886;28;20059;-40
2024/02/25 04:53:04;;;;;;;1.92;0.75;;;22.00;44.20;;;;;;5078741;28;20036;-41
2024/02/25 04:55:30;;;;;;;1.83;0.93;;;22.00;44.10;;;;;;5075405;28;20032;-41
2024/02/25 04:57:56;;;;;;;1.67;0.80;;;22.00;44.00;;;;;;5075411;28;20032;-41
2024/02/25 05:00:23;;;;;;;1.30;0.68;;;22.00;44.00;;;;;;5077770;28;20045;-41
2024/02/25 05:02:49;;;;;;;1.50;0.60;;;22.00;43.90;;;;;;5079177;28;20036;-41
2024/02/25 05:05:15;;;;;;;1.65;0.75;;;22.00;43.90;;;;;;5080270;28;20119;-40
2024/02/25 05:07:41;;;;;;;1.02;0.70;;;21.90;43.80;;;;;;5061716;28;20045;-41
2024/02/25 05:10:07;;;;;;;1.20;0.60;;;21.90;43.80;;;;;;5061376;28;20037;-41
2024/02/25 05:12:33;;;;;;;1.00;0.57;;;22.00;43.80;;;;;;5058461;28;20025;-41
2024/02/25 05:15:00;;;;;;;0.88;0.60;;;22.00;43.80;;;;;;5061084;28;20041;-41
2024/02/25 05:17:26;;;;;;;1.85;0.50;;;22.00;43.80;;;;;;5055929;28;20155;-41
2024/02/25 05:19:52;;;;;;;1.20;0.55;;;21.90;43.70;;;;;;5061446;28;20096;-43
2024/02/25 05:22:18;;;;;;;1.10;0.60;;;21.90;43.60;;;;;;5062304;28;20029;-40
2024/02/25 05:24:45;;;;;;;0.82;0.60;;;21.90;43.50;;;;;;5061309;28;20082;-41
2024/02/25 05:27:11;;;;;;;0.60;0.40;;;21.90;43.60;;;;;;5055207;28;20033;-42
2024/02/25 05:29:38;;;;;;;0.40;0.40;;;22.00;43.60;;;;;;5057727;28;20132;-38
2024/02/25 05:32:05;;;;;;;0.70;0.45;;;22.00;43.60;;;;;;5061714;28;20852;-41
2024/02/25 05:34:31;;;;;;;0.75;0.40;;;21.90;43.50;;;;;;5061546;28;20040;-41
2024/02/25 05:36:57;;;;;;;0.80;0.60;;;21.90;43.40;;;;;;5061138;28;20041;-42
2024/02/25 05:39:23;;;;;;;1.02;0.60;;;21.90;43.40;;;;;;5060420;28;20072;-39
2024/02/25 05:41:49;;;;;;;0.65;0.45;;;21.90;43.50;;;;;;5061601;28;20037;-40
2024/02/25 05:44:15;;;;;;;0.90;0.50;;;21.90;43.40;;;;;;5060815;28;20025;-40
2024/02/25 05:46:42;;;;;;;0.63;0.45;;;22.00;43.40;;;;;;5055787;28;20041;-41
2024/02/25 05:49:08;;;;;;;0.98;0.43;;;21.90;43.40;;;;;;5041882;28;20044;-40
2024/02/25 05:51:34;;;;;;;0.70;0.50;;;21.90;43.30;;;;;;5061421;28;20029;-39
2024/02/25 05:54:00;;;;;;;0.40;0.40;;;21.80;43.30;;;;;;5060688;28;20033;-41
2024/02/25 05:56:26;;;;;;;0.50;0.40;;;21.80;43.30;;;;;;5061418;28;20059;-43
2024/02/25 05:58:52;;;;;;;0.40;0.40;;;21.90;43.30;;;;;;5051789;28;20068;-40
2024/02/25 06:01:18;;;;;;;0.75;0.50;;;21.90;43.30;;;;;;5059244;28;20047;-41
2024/02/25 06:03:45;;;;;;;0.60;0.50;;;21.90;43.30;;;;;;5061003;28;20033;-42
2024/02/25 06:06:12;;;;;;;0.55;0.40;;;21.90;43.30;;;;;;5056490;28;20060;-42
2024/02/25 06:08:38;;;;;;;0.85;0.60;;;21.80;43.20;;;;;;5058148;28;20032;-41
2024/02/25 06:11:04;;;;;;;0.77;0.53;;;21.80;43.20;;;;;;5060142;28;20092;-42
2024/02/25 06:13:30;;;;;;;0.60;0.57;;;21.80;43.20;;;;;;5058484;28;20332;-42
2024/02/25 06:15:56;;;;;;;2.55;0.60;;;21.80;43.80;;;;;;5062669;28;20033;-41
2024/02/25 06:18:23;;;;;;;0.75;0.55;;;21.90;43.20;;;;;;5056988;28;20073;-39
2024/02/25 06:20:49;;;;;;;0.77;0.60;;;21.80;43.20;;;;;;5064213;28;20052;-42
2024/02/25 06:23:15;;;;;;;0.50;0.45;;;21.80;43.10;;;;;;5065343;28;20162;-42
2024/02/25 06:25:41;;;;;;;1.20;0.50;;;21.80;43.10;;;;;;5065075;28;20056;-41
2024/02/25 06:28:08;;;;;;;0.70;0.60;;;21.80;43.20;;;;;;5065276;28;20565;-41
2024/02/25 06:30:34;;;;;;;0.80;0.52;;;21.80;43.20;;;;;;5064885;28;20029;-42
2024/02/25 06:33:00;;;;;;;0.90;0.70;;;21.80;43.20;;;;;;5039535;28;20402;-41
2024/02/25 06:35:26;;;;;;;1.13;0.73;;;21.80;43.20;;;;;;5065304;28;20115;-40
2024/02/25 06:37:52;;;;;;;1.00;0.70;;;21.80;43.20;;;;;;5064222;28;20029;-42
2024/02/25 06:40:19;;;;;;;0.73;0.65;;;21.70;43.10;;;;;;5064029;28;20047;-41
2024/02/25 06:42:45;;;;;;;0.95;0.70;;;21.70;43.10;;;;;;5053572;28;20044;-41
2024/02/25 06:45:11;;;;;;;0.85;0.60;;;21.80;43.10;;;;;;5048060;28;20403;-40
2024/02/25 06:47:37;;;;;;;0.65;0.50;;;21.80;43.20;;;;;;5051378;28;20049;-41
2024/02/25 06:50:04;;;;;;;1.23;0.63;;;21.80;43.20;;;;;;5052449;28;20033;-39
2024/02/25 06:52:30;;;;;;;1.23;0.80;;;21.80;43.10;;;;;;5051812;28;20017;-40
2024/02/25 06:54:56;;;;;;;0.95;0.63;;;21.70;43.00;;;;;;5050547;28;20068;-39
2024/02/25 06:57:22;;;;;;;0.75;0.70;;;21.70;43.10;;;;;;5049825;28;20036;-36
2024/02/25 06:59:48;;;;;;;0.70;0.60;;;21.70;43.10;;;;;;5054998;28;20623;-41
2024/02/25 07:02:14;;;;;;;1.02;0.90;;;21.80;43.10;;;;;;5054054;28;20037;-41
2024/02/25 07:04:40;;;;;;;1.00;0.77;;;21.80;43.10;;;;;;5049610;28;20097;-43
2024/02/25 07:07:06;;;;;;;0.82;0.63;;;21.80;43.00;;;;;;5067796;28;20090;-41
2024/02/25 07:09:32;;;;;;;1.17;0.70;;;21.70;43.00;;;;;;5070695;28;20027;-41
2024/02/25 07:11:59;;;;;;;0.82;0.63;;;21.70;43.00;;;;;;5074936;28;20066;-40
2024/02/25 07:14:28;;;;;;;0.60;0.50;;;21.70;43.00;;;;;;5068358;28;20032;-40
2024/02/25 07:16:54;;;;;;;0.60;0.55;;;21.70;43.00;;;;;;5072054;28;20032;-37
2024/02/25 07:19:20;;;;;;;0.60;0.60;;;21.80;43.10;;;;;;5074066;28;20103;-41
2024/02/25 07:21:46;;;;;;;0.90;0.60;;;21.80;43.00;;;;;;5075330;28;20031;-37
2024/02/25 07:24:12;;;;;;;0.63;0.60;;;21.70;43.00;;;;;;5074472;28;20066;-40
2024/02/25 07:26:38;;;;;;;0.63;0.55;;;21.70;43.00;;;;;;5070129;28;20029;-39
2024/02/25 07:29:04;;;;;;;0.95;0.60;;;21.70;43.00;;;;;;5076681;28;20032;-40
2024/02/25 07:31:30;;;;;;;0.60;0.60;;;21.70;43.00;;;;;;5073088;28;20021;-37
2024/02/25 07:33:57;;;;;;;0.70;0.50;;;21.80;43.00;;;;;;5071806;28;20560;-40
2024/02/25 07:36:23;;;;;;;0.90;0.60;;;21.80;43.00;;;;;;5072536;28;20115;-41
2024/02/25 07:38:49;;;;;;;0.80;0.52;;;21.70;42.90;;;;;;5075146;28;20033;-39
2024/02/25 07:41:15;;;;;;;0.73;0.60;;;21.70;42.90;;;;;;5074636;28;20066;-39
2024/02/25 07:43:41;;;;;;;0.50;0.40;;;21.60;42.90;;;;;;5073836;28;20036;-40
2024/02/25 07:46:07;;;;;;;0.60;0.60;;;21.70;43.00;;;;;;5073818;28;20032;-40
2024/02/25 07:48:33;;;;;;;0.63;0.50;;;21.70;42.90;;;;;;5072441;28;20107;-40
2024/02/25 07:51:00;;;;;;;0.60;0.50;;;21.70;43.50;;;;;;5055367;28;20041;-42
2024/02/25 07:53:26;;;;;;;0.70;0.50;;;21.70;42.90;;;;;;5070277;28;20039;-43
2024/02/25 07:55:52;;;;;;;0.77;0.50;;;21.70;42.90;;;;;;5072144;28;20037;-43
2024/02/25 07:58:18;;;;;;;0.40;0.40;;;21.60;42.90;;;;;;5074276;28;20041;-39
2024/02/25 08:00:44;;;;;;;0.32;0.30;;;21.70;42.90;;;;;;5068850;28;20092;-40
2024/02/25 08:03:10;;;;;;;0.60;0.40;;;21.70;42.90;;;;;;5068261;28;20029;-40
2024/02/25 08:05:36;;;;;;;0.43;0.40;;;21.70;43.00;;;;;;5060897;28;20041;-39
2024/02/25 08:08:03;;;;;;;0.77;0.60;;;21.70;42.90;;;;;;5051074;28;20037;-41
2024/02/25 08:10:29;;;;;;;0.40;0.40;;;21.60;42.80;;;;;;5052669;28;20102;-40
2024/02/25 08:12:56;;;;;;;0.50;0.50;;;21.60;42.80;;;;;;5051030;28;20036;-40
2024/02/25 08:15:22;;;;;;;0.47;0.40;;;21.60;42.80;;;;;;5048662;28;20037;-42
2024/02/25 08:17:48;;;;;;;0.40;0.40;;;21.70;42.90;;;;;;5050303;28;20038;-40
2024/02/25 08:20:14;;;;;;;0.68;0.43;;;21.70;42.90;;;;;;5050968;28;20090;-38
2024/02/25 08:22:40;;;;;;;0.65;0.50;;;21.70;42.90;;;;;;5048526;28;20033;-40
2024/02/25 08:25:09;;;;;;;0.68;0.52;;;21.60;42.80;;;;;;5051074;28;20037;-39
2024/02/25 08:27:35;;;;;;;0.32;0.32;;;21.60;42.80;;;;;;5049879;28;20055;-40
2024/02/25 08:30:02;;;;;;;0.57;0.43;;;21.60;42.80;;;;;;5045553;28;20040;-39
2024/02/25 08:32:28;;;;;;;0.50;0.50;;;21.60;42.80;;;;;;5055025;28;20044;-41
2024/02/25 08:34:54;;;;;;;0.50;0.40;;;21.70;42.90;;;;;;5050730;28;20033;-40
2024/02/25 08:37:27;;;;;;;0.35;0.35;;;21.70;42.90;;;;;;5047717;28;20036;-39
2024/02/25 08:39:53;;;;;;;0.55;0.47;;;21.60;42.70;;;;;;5045630;28;20055;-39
2024/02/25 08:42:20;;;;;;;0.70;0.43;;;21.60;42.70;;;;;;5055123;28;20028;-39
2024/02/25 08:44:47;;;;;;;0.65;0.40;;;21.50;42.70;;;;;;5057631;28;20028;-40
2024/02/25 08:47:13;;;;;;;0.52;0.40;;;21.60;42.70;;;;;;5062264;28;20029;-40
2024/02/25 08:49:39;;;;;;;0.52;0.40;;;21.60;42.70;;;;;;5062525;28;20036;-37
2024/02/25 08:52:05;;;;;;;0.40;0.35;;;21.60;42.70;;;;;;5062375;28;20044;-41
2024/02/25 08:54:32;;;;;;;0.43;0.40;;;21.60;42.70;;;;;;5034642;28;20095;-41
2024/02/25 08:56:58;;;;;;;0.40;0.40;;;21.60;42.70;;;;;;5058973;28;20040;-44
2024/02/25 08:59:24;;;;;;;0.30;0.30;;;21.50;42.70;;;;;;5053162;28;20037;-39
2024/02/25 09:01:51;;;;;;;0.70;0.47;;;21.60;42.70;;;;;;5059824;28;20025;-39
2024/02/25 09:04:17;;;;;;;0.50;0.40;;;21.60;42.70;;;;;;5062166;28;20033;-41
2024/02/25 09:06:43;;;;;;;0.40;0.30;;;21.60;42.70;;;;;;5058646;28;20049;-40
2024/02/25 09:09:09;;;;;;;0.50;0.40;;;21.60;42.60;;;;;;5060607;28;20064;-41
2024/02/25 09:11:35;;;;;;;0.60;0.60;;;21.60;42.60;;;;;;5057943;28;20096;-38
2024/02/25 09:14:02;;;;;;;0.68;0.45;;;21.50;42.60;;;;;;5059014;28;20028;-40
2024/02/25 09:16:30;;;;;;;0.45;0.35;;;21.60;42.70;;;;;;5055384;28;20032;-40
2024/02/25 09:18:56;;;;;;;0.40;0.35;;;21.60;42.60;;;;;;5061258;28;20025;-40
2024/02/25 09:21:23;;;;;;;0.43;0.40;;;21.60;42.60;;;;;;5062066;28;20098;-39
2024/02/25 09:23:49;;;;;;;0.77;0.47;;;21.50;42.60;;;;;;5055186;28;20085;-40
2024/02/25 09:26:15;;;;;;;0.40;0.38;;;21.50;42.60;;;;;;5062187;28;20035;-40
2024/02/25 09:28:41;;;;;;;0.63;0.50;;;21.60;42.80;;;;;;5059734;28;20029;-41
2024/02/25 09:31:08;;;;;;;0.38;0.30;;;21.50;43.40;;;;;;5060006;28;20044;-44
2024/02/25 09:33:35;;;;;;;1.85;0.40;;;21.60;42.80;;;;;;5060504;28;20036;-41
2024/02/25 09:36:01;;;;;;;0.50;0.40;;;21.60;42.80;;;;;;5061133;28;20048;-41
2024/02/25 09:38:28;;;;;;;0.50;0.40;;;21.50;42.70;;;;;;5061016;28;20033;-40
2024/02/25 09:41:01;;;;;;;0.60;0.40;;;21.50;42.70;;;;;;5054841;28;20045;-41
2024/02/25 09:43:27;;;;;;;0.40;0.40;;;21.50;42.70;;;;;;5061548;28;20032;-41
2024/02/25 09:45:56;;;;;;;0.50;0.40;;;21.50;42.70;;;;;;5061748;28;20206;-41
2024/02/25 09:48:23;;;;;;;0.65;0.40;;;21.60;42.70;;;;;;5057491;28;20032;-41
2024/02/25 09:50:50;;;;;;;0.57;0.40;;;21.60;42.70;;;;;;5061019;28;20049;-41
2024/02/25 09:53:17;;;;;;;0.73;0.50;;;21.60;42.60;;;;;;5052827;28;20039;-43
2024/02/25 09:55:44;;;;;;;0.88;0.40;;;21.50;42.60;;;;;;5052513;28;20025;-41
2024/02/25 09:58:10;;;;;;;0.67;0.47;;;21.50;42.60;;;;;;5059751;28;20025;-43
2024/02/25 10:00:36;;;;;;;1.00;0.43;;;21.60;42.60;;;;;;5059972;28;20040;-40
2024/02/25 10:03:04;;;;;;;0.70;0.50;;;21.60;42.60;;;;;;5060759;28;20025;-41
2024/02/25 10:05:30;;;;;;;0.40;0.40;;;21.60;42.60;;;;;;5062620;28;20033;-41
2024/02/25 10:08:13;;;;;;;0.55;0.50;;;21.50;42.60;;;;;;5078365;28;20036;-38
2024/02/25 10:10:41;;;;;;;0.60;0.40;;;21.50;42.50;;;;;;5073978;28;20071;-38
2024/02/25 10:13:07;;;;;;;0.50;0.40;;;21.50;42.60;;;;;;5080307;28;20469;-42
2024/02/25 10:15:34;;;;;;;0.68;0.40;;;21.50;42.50;;;;;;5070963;28;20025;-41
2024/02/25 10:18:00;;;;;;;2.20;0.43;;;21.60;42.60;;;;;;5079977;28;20051;-41
2024/02/25 10:20:26;;;;;;;0.70;0.50;;;21.60;42.60;;;;;;5081039;28;20099;-41
2024/02/25 10:23:06;;;;;;;0.85;0.50;;;21.50;42.50;;;;;;5080003;28;20055;-41
2024/02/25 10:25:32;;;;;;;0.57;0.50;;;21.50;42.50;;;;;;5077184;28;20028;-42
2024/02/25 10:28:16;;;;;;;0.40;0.35;;;21.50;42.50;;;;;;5052048;28;20082;-39
2024/02/25 10:30:58;;;;;;;0.60;0.40;;;21.50;42.50;;;;;;5077527;28;20050;-38
2024/02/25 10:33:25;;;;;;;0.47;0.47;;;21.50;42.50;;;;;;5073743;28;20024;-41
2024/02/25 10:35:51;;;;;;;1.45;0.40;;;21.60;42.60;;;;;;5080294;28;20028;-41
2024/02/25 10:38:19;;;;;;;0.65;0.45;;;21.50;42.50;;;;;;5080691;28;20029;-39
2024/02/25 10:40:45;;;;;;;0.57;0.57;;;21.50;42.50;;;;;;5078498;28;20098;-39
2024/02/25 10:43:13;;;;;;;0.50;0.45;;;21.50;42.50;;;;;;5062391;28;20032;-43
2024/02/25 10:45:41;;;;;;;0.50;0.40;;;21.50;42.50;;;;;;5075476;28;20032;-37
2024/02/25 10:48:11;;;;;;;0.88;0.52;;;21.60;42.50;;;;;;5058792;28;20059;-40
2024/02/25 10:50:40;;;;;;;0.60;0.50;;;21.50;42.50;;;;;;5063524;28;20075;-41
2024/02/25 10:53:07;;;;;;;0.77;0.50;;;21.60;42.50;;;;;;5078506;28;20032;-41
2024/02/25 10:55:33;;;;;;;0.60;0.60;;;21.50;42.40;;;;;;5061608;28;20020;-41
2024/02/25 10:57:59;;;;;;;0.70;0.60;;;21.50;42.50;;;;;;5079523;28;20035;-40
2024/02/25 11:00:25;;;;;;;0.57;0.50;;;21.50;42.50;;;;;;5081173;28;20112;-41
2024/02/25 11:02:51;;;;;;;0.60;0.40;;;21.50;42.40;;;;;;5081621;28;20021;-41
2024/02/25 11:05:17;;;;;;;0.65;0.50;;;21.50;42.50;;;;;;5065184;28;20036;-41
2024/02/25 11:07:43;;;;;;;0.65;0.60;;;21.50;42.40;;;;;;5080877;28;20071;-40
2024/02/25 11:10:19;;;;;;;0.65;0.40;;;21.50;42.40;;;;;;5084637;28;20042;-41
2024/02/25 11:12:48;;;;;;;0.40;0.40;;;21.50;42.40;;;;;;5083933;28;20032;-41
2024/02/25 11:15:28;;;;;;;0.60;0.55;;;21.50;42.40;;;;;;5083847;28;20033;-39
2024/02/25 11:17:55;;;;;;;0.52;0.50;;;21.50;42.40;;;;;;5077864;28;20029;-41
2024/02/25 11:20:28;;;;;;;;;;;21.50;42.40;;;;;;5084421;28;20064;-41
2024/02/25 11:22:55;;;;;;;0.70;0.52;;;21.50;42.40;;;;;;5083341;28;19916;-41
2024/02/25 11:25:30;;;;;;;0.60;0.60;;;21.50;42.40;;;;;;5066437;28;20063;-40
2024/02/25 11:27:57;;;;;;;0.63;0.60;;;21.40;42.40;;;;;;5080746;28;20095;-41
2024/02/25 11:30:23;;;;;;;;;;;21.50;42.40;;;;;;5084742;28;20123;-38
2024/02/25 11:32:49;;;;;;;0.73;0.57;;;21.50;42.40;;;;;;5082090;28;19916;-41
2024/02/25 11:35:17;;;;;;;0.63;0.55;;;21.50;42.40;;;;;;5084311;28;20024;-41
2024/02/25 11:37:44;;;;;;;0.60;0.47;;;21.50;42.40;;;;;;5083038;28;20028;-40
2024/02/25 11:40:11;;;;;;;0.63;0.40;;;21.40;42.30;;;;;;5080007;28;20036;-40
2024/02/25 11:42:39;;;;;;;0.82;0.43;;;21.40;42.30;;;;;;5083648;28;20033;-42
2024/02/25 11:45:05;;;;;;;0.60;0.60;;;21.40;42.30;;;;;;5083415;28;20037;-41
2024/02/25 11:47:31;;;;;;;0.95;0.50;;;21.50;42.40;;;;;;5081175;28;20201;-37
2024/02/25 11:49:59;;;;;;;0.47;0.47;;;21.50;42.40;;;;;;5082609;28;20028;-41
2024/02/25 11:52:25;;;;;;;0.73;0.50;;;21.50;42.30;;;;;;5064923;28;20123;-40
2024/02/25 11:54:51;;;;;;;0.60;0.50;;;21.40;42.30;;;;;;5079158;28;20103;-40
2024/02/25 11:57:18;;;;;;;0.63;0.60;;;21.40;42.30;;;;;;5081682;28;21816;-40
2024/02/25 11:59:45;;;;;;;0.50;0.50;;;21.40;42.30;;;;;;5080976;28;20040;-40
2024/02/25 12:02:11;;;;;;;0.50;0.40;;;21.50;42.30;;;;;;5081618;28;20088;-39
2024/02/25 12:04:37;;;;;;;0.60;0.40;;;21.50;42.30;;;;;;5074516;28;20834;-41
2024/02/25 12:07:04;;;;;;;0.80;0.60;;;21.40;42.20;;;;;;5075269;28;20608;-41
2024/02/25 12:09:30;;;;;;;0.50;0.40;;;21.40;42.30;;;;;;5082891;28;20039;-41
2024/02/25 12:11:57;;;;;;;0.70;0.60;;;21.30;42.30;;;;;;5083141;28;20638;-41
2024/02/25 12:14:23;;;;;;;0.43;0.43;;;21.40;42.30;;;;;;5040975;28;20043;-41
2024/02/25 12:16:50;;;;;;;0.70;0.60;;;21.40;42.20;;;;;;5077564;28;20029;-40
2024/02/25 12:19:16;;;;;;;0.63;0.40;;;21.40;42.20;;;;;;5082087;28;20020;-41
2024/02/25 12:21:45;;;;;;;0.85;0.60;;;21.40;42.20;;;;;;5064612;28;20041;-41
2024/02/25 12:24:11;;;;;;;0.68;0.55;;;21.40;42.30;;;;;;5081362;28;20028;-39
2024/02/25 12:26:58;;;;;;;7.45;0.65;;;21.40;42.30;;;;;;5065131;28;20040;-40
2024/02/25 12:29:26;;;;;;;0.50;0.50;;;21.40;42.40;;;;;;5076361;28;20020;-41
2024/02/25 12:31:54;;;;;;;1.98;0.52;;;21.50;42.30;;;;;;5081660;28;20039;-39
2024/02/25 12:34:20;;;;;;;0.70;0.50;;;21.50;42.30;;;;;;5077531;28;20052;-40
2024/02/25 12:36:47;;;;;;;2.15;0.47;;;21.40;42.20;;;;;;5081292;28;20036;-40
2024/02/25 12:39:22;;;;;;;0.40;0.40;;;21.40;42.20;;;;;;5059972;28;20029;-41
2024/02/25 12:41:56;;;;;;;2.15;0.50;;;21.40;42.20;;;;;;5077542;28;20025;-41
2024/02/25 12:44:23;;;;;;;1.15;0.80;;;21.40;42.20;;;;;;5082795;28;20028;-40
2024/02/25 12:46:49;;;;;;;3.30;1.10;;;21.50;42.70;;;;;;5075079;28;20029;-40